Time;durP1;ratioP1;P1;durP2;ratioP2;P2;SDS_P1;SDS_P2;PMS_P1;PMS_P2;Temp;Humidity;BMP_temperature;BMP_pressure;BME280_temperature;BME280_humidity;BME280_pressure;Samples;Min_cycle;Max_cycle;Signal;HPM_P1;HPM_P2
2023/07/04 00:01:48;;;;;;;6.88;2.35;;;20.10;79.70;;;;;;5025804;28;20339;-79
2023/07/04 00:04:17;;;;;;;7.20;2.60;;;20.10;80.00;;;;;;5042100;28;20032;-79
2023/07/04 00:06:43;;;;;;;6.25;2.53;;;20.10;80.00;;;;;;5042631;28;20108;-78
2023/07/04 00:09:09;;;;;;;4.03;2.08;;;20.10;80.20;;;;;;5045644;28;20104;-79
2023/07/04 00:11:34;;;;;;;7.70;2.30;;;20.10;80.20;;;;;;5040801;28;20366;-79
2023/07/04 00:14:00;;;;;;;6.22;2.70;;;20.10;80.40;;;;;;5035265;28;20486;-78
2023/07/04 00:16:26;;;;;;;3.80;1.98;;;20.10;80.60;;;;;;5039302;28;20051;-79
2023/07/04 00:18:52;;;;;;;4.90;2.25;;;20.10;80.50;;;;;;5037662;28;20033;-79
2023/07/04 00:21:19;;;;;;;6.13;2.42;;;20.10;80.70;;;;;;5060828;28;20040;-78
2023/07/04 00:23:47;;;;;;;5.50;2.30;;;20.10;80.80;;;;;;5060439;28;20017;-79
2023/07/04 00:26:17;;;;;;;4.93;2.30;;;20.10;80.80;;;;;;5061987;28;20103;-79
2023/07/04 00:28:43;;;;;;;4.05;2.33;;;20.10;81.10;;;;;;5057663;28;20021;-79
2023/07/04 00:31:11;;;;;;;5.18;2.08;;;20.10;81.10;;;;;;5064820;28;20620;-78
2023/07/04 00:33:37;;;;;;;7.93;2.65;;;20.10;82.00;;;;;;5068116;28;20475;-79
2023/07/04 00:36:05;;;;;;;8.32;2.72;;;20.10;81.50;;;;;;5065467;28;20142;-79
2023/07/04 00:38:33;;;;;;;7.88;2.60;;;20.10;81.50;;;;;;5066163;28;20020;-79
2023/07/04 00:41:01;;;;;;;5.88;2.10;;;20.10;81.50;;;;;;5046227;28;20032;-79
2023/07/04 00:44:01;;;;;;;8.27;2.47;;;20.10;81.90;;;;;;5067319;28;20020;-79
2023/07/04 00:46:37;;;;;;;4.68;2.13;;;20.10;81.90;;;;;;5063787;28;20024;-79
2023/07/04 00:49:29;;;;;;;6.03;1.98;;;20.10;82.10;;;;;;5048388;28;20439;-79
2023/07/04 00:52:06;;;;;;;7.07;2.35;;;20.10;82.20;;;;;;5059853;28;20649;-79
2023/07/04 00:54:52;;;;;;;4.55;2.20;;;20.10;82.40;;;;;;5063262;28;20170;-78
2023/07/04 00:57:20;;;;;;;5.68;1.92;;;20.10;82.50;;;;;;5065958;28;20028;-79
2023/07/04 00:59:51;;;;;;;5.78;2.42;;;20.00;82.50;;;;;;5071356;28;20103;-78
2023/07/04 01:02:21;;;;;;;3.47;2.03;;;20.10;82.50;;;;;;5072628;28;20439;-79
2023/07/04 01:04:48;;;;;;;;;;;20.10;82.60;;;;;;5065139;28;20474;-79
2023/07/04 01:07:31;;;;;;;3.88;1.92;;;20.10;82.70;;;;;;5060779;28;19908;-79
2023/07/04 01:10:23;;;;;;;4.63;2.38;;;20.10;82.90;;;;;;5063217;28;20016;-78
2023/07/04 01:12:50;;;;;;;5.43;2.33;;;20.00;82.80;;;;;;5065845;28;20064;-78
2023/07/04 01:15:16;;;;;;;5.25;2.03;;;20.10;83.00;;;;;;5073976;28;20024;-78
2023/07/04 01:17:42;;;;;;;4.60;2.00;;;20.10;83.10;;;;;;5065962;28;20023;-78
2023/07/04 01:20:12;;;;;;;4.45;2.05;;;20.10;83.10;;;;;;5061799;28;20108;-78
2023/07/04 01:22:38;;;;;;;6.10;2.40;;;20.10;83.30;;;;;;5038235;28;20048;-78
2023/07/04 01:25:09;;;;;;;5.63;2.00;;;20.10;83.40;;;;;;5041366;28;20025;-78
2023/07/04 01:27:37;;;;;;;4.25;1.85;;;20.00;83.40;;;;;;5040465;28;20021;-78
2023/07/04 01:30:05;;;;;;;4.38;2.40;;;20.00;83.40;;;;;;5046102;28;20461;-78
2023/07/04 01:32:35;;;;;;;5.70;2.35;;;20.00;83.50;;;;;;5040323;28;20435;-78
2023/07/04 01:35:02;;;;;;;3.50;2.15;;;20.00;83.50;;;;;;5040540;28;20041;-79
2023/07/04 01:37:29;;;;;;;4.82;2.25;;;20.00;83.90;;;;;;5043414;28;20032;-78
2023/07/04 01:39:57;;;;;;;4.22;2.08;;;20.00;83.60;;;;;;5041765;28;20021;-79
2023/07/04 01:42:23;;;;;;;3.65;2.05;;;20.00;83.70;;;;;;5042754;28;20088;-78
2023/07/04 01:44:49;;;;;;;6.82;2.20;;;20.00;83.70;;;;;;5042748;28;20471;-78
2023/07/04 01:47:14;;;;;;;3.35;2.03;;;20.00;83.80;;;;;;5041468;28;20020;-78
2023/07/04 01:49:40;;;;;;;5.85;2.30;;;20.00;83.70;;;;;;5045014;28;20358;-79
2023/07/04 01:52:07;;;;;;;2.78;2.25;;;20.00;83.90;;;;;;5040764;28;20024;-79
2023/07/04 01:54:32;;;;;;;5.13;2.22;;;20.00;83.90;;;;;;5036745;28;20029;-79
2023/07/04 01:56:58;;;;;;;5.32;2.40;;;20.00;83.90;;;;;;5043283;28;20029;-79
2023/07/04 01:59:23;;;;;;;6.50;2.58;;;20.00;84.00;;;;;;5040739;28;20106;-79
2023/07/04 02:01:49;;;;;;;4.53;1.92;;;20.00;84.10;;;;;;5037112;28;20052;-78
2023/07/04 02:04:15;;;;;;;3.47;2.38;;;20.00;84.10;;;;;;5042451;28;20029;-78
2023/07/04 02:06:41;;;;;;;6.18;2.13;;;20.00;84.20;;;;;;5043714;28;20036;-78
2023/07/04 02:09:07;;;;;;;3.75;2.30;;;20.00;84.20;;;;;;5044171;28;20308;-78
2023/07/04 02:11:33;;;;;;;6.60;2.45;;;20.00;84.20;;;;;;5043731;28;20408;-79
2023/07/04 02:14:00;;;;;;;5.35;2.13;;;20.00;84.30;;;;;;5039916;28;20030;-79
2023/07/04 02:16:26;;;;;;;5.82;2.28;;;20.00;84.30;;;;;;5037825;28;20041;-79
2023/07/04 02:18:51;;;;;;;7.28;2.70;;;20.00;84.40;;;;;;5037535;28;20018;-79
2023/07/04 02:21:18;;;;;;;4.47;2.22;;;20.00;84.50;;;;;;5042709;28;20040;-78
2023/07/04 02:23:44;;;;;;;5.78;2.10;;;20.00;84.50;;;;;;5041711;28;20021;-78
2023/07/04 02:26:11;;;;;;;4.07;2.22;;;20.00;84.60;;;;;;5039256;28;20021;-78
2023/07/04 02:28:39;;;;;;;5.53;2.30;;;20.00;84.60;;;;;;5021140;28;20024;-78
2023/07/04 02:31:05;;;;;;;6.82;2.60;;;20.00;84.70;;;;;;5040054;28;20056;-78
2023/07/04 02:33:30;;;;;;;3.97;2.60;;;20.00;84.80;;;;;;5035995;28;20053;-78
2023/07/04 02:35:56;;;;;;;9.73;2.72;;;20.00;84.80;;;;;;5030829;28;20036;-78
2023/07/04 02:38:22;;;;;;;4.25;2.03;;;20.00;84.80;;;;;;5039381;28;20026;-77
2023/07/04 02:40:49;;;;;;;5.82;2.30;;;20.00;84.80;;;;;;5043491;28;20017;-78
2023/07/04 02:43:15;;;;;;;6.88;2.38;;;20.00;84.90;;;;;;5040969;28;20037;-78
2023/07/04 02:45:42;;;;;;;21.05;2.70;;;20.00;84.90;;;;;;5040460;28;20038;-78
2023/07/04 02:48:08;;;;;;;7.28;2.28;;;20.00;84.90;;;;;;5038083;28;20478;-78
2023/07/04 02:50:33;;;;;;;4.10;2.20;;;20.00;84.90;;;;;;5035875;28;20098;-78
2023/07/04 02:52:59;;;;;;;4.05;2.28;;;20.00;84.90;;;;;;5045801;28;20074;-78
2023/07/04 02:55:25;;;;;;;4.38;2.20;;;20.00;85.00;;;;;;5047050;28;20508;-78
2023/07/04 02:57:51;;;;;;;5.40;2.33;;;20.00;85.00;;;;;;5044049;28;20082;-78
2023/07/04 03:00:16;;;;;;;7.47;2.75;;;20.00;85.10;;;;;;5041546;28;20036;-78
2023/07/04 03:02:43;;;;;;;5.28;2.35;;;20.00;85.10;;;;;;5043645;28;20057;-78
2023/07/04 03:05:09;;;;;;;10.65;2.75;;;20.00;85.10;;;;;;5037337;28;20036;-78
2023/07/04 03:07:35;;;;;;;4.28;2.70;;;20.00;85.10;;;;;;5035810;28;20025;-78
2023/07/04 03:10:00;;;;;;;4.82;2.70;;;20.00;85.10;;;;;;5042759;28;20025;-78
2023/07/04 03:12:26;;;;;;;4.45;2.40;;;19.90;85.10;;;;;;5043800;28;20360;-78
2023/07/04 03:14:52;;;;;;;4.68;2.47;;;19.90;85.20;;;;;;5038530;28;20470;-78
2023/07/04 03:17:17;;;;;;;4.05;2.47;;;20.00;85.30;;;;;;5039854;28;20017;-78
2023/07/04 03:19:43;;;;;;;5.57;2.08;;;20.00;85.30;;;;;;5036887;28;20116;-78
2023/07/04 03:22:08;;;;;;;6.55;1.98;;;20.00;85.40;;;;;;5038366;28;20027;-78
2023/07/04 03:24:34;;;;;;;4.88;2.15;;;20.00;85.50;;;;;;5038187;28;20389;-78
2023/07/04 03:27:00;;;;;;;6.15;2.45;;;19.90;85.20;;;;;;5040522;28;20025;-78
2023/07/04 03:29:25;;;;;;;3.35;1.80;;;20.00;85.50;;;;;;5041037;28;20060;-79
2023/07/04 03:31:51;;;;;;;4.43;2.30;;;19.90;85.40;;;;;;5043670;28;20029;-78
2023/07/04 03:34:16;;;;;;;3.78;2.45;;;19.90;85.60;;;;;;5041514;28;20041;-79
2023/07/04 03:36:42;;;;;;;5.47;2.35;;;20.00;85.50;;;;;;5036607;28;20025;-79
2023/07/04 03:39:08;;;;;;;3.78;1.95;;;19.90;85.60;;;;;;5037336;28;20013;-78
2023/07/04 03:41:33;;;;;;;5.20;2.60;;;19.90;85.70;;;;;;5047710;28;20029;-78
2023/07/04 03:44:00;;;;;;;7.40;2.38;;;19.90;85.70;;;;;;5047980;28;20148;-78
2023/07/04 03:46:26;;;;;;;3.05;2.03;;;19.90;85.80;;;;;;5042469;28;20037;-78
2023/07/04 03:48:51;;;;;;;5.32;2.25;;;19.90;86.00;;;;;;5041592;28;20052;-78
2023/07/04 03:51:17;;;;;;;5.15;2.35;;;19.90;85.90;;;;;;5037994;28;20477;-78
2023/07/04 03:53:43;;;;;;;9.02;2.30;;;19.90;86.00;;;;;;5042488;28;20037;-78
2023/07/04 03:56:08;;;;;;;3.05;2.17;;;19.90;86.00;;;;;;5045916;28;20024;-78
2023/07/04 03:58:34;;;;;;;6.10;2.30;;;19.90;86.10;;;;;;5048642;28;20017;-78
2023/07/04 04:01:01;;;;;;;5.63;2.78;;;19.90;86.30;;;;;;5041912;28;20024;-78
2023/07/04 04:03:26;;;;;;;5.97;2.13;;;19.90;86.20;;;;;;5042608;28;20494;-78
2023/07/04 04:05:53;;;;;;;5.45;2.33;;;19.90;87.10;;;;;;5039888;28;20025;-78
2023/07/04 04:08:18;;;;;;;4.10;2.00;;;19.90;86.40;;;;;;5023698;28;20083;-78
2023/07/04 04:10:44;;;;;;;5.78;2.70;;;19.90;86.40;;;;;;5046071;28;20482;-79
2023/07/04 04:13:10;;;;;;;5.07;2.40;;;20.30;86.80;;;;;;5046025;28;20020;-79
2023/07/04 04:15:36;;;;;;;4.03;2.47;;;19.90;86.50;;;;;;5044565;28;20025;-79
2023/07/04 04:18:01;;;;;;;4.88;2.65;;;19.90;86.60;;;;;;5044714;28;20484;-78
2023/07/04 04:20:27;;;;;;;6.20;2.63;;;19.90;86.60;;;;;;5052776;28;20032;-78
2023/07/04 04:22:53;;;;;;;4.32;2.30;;;19.90;86.70;;;;;;5060301;28;20032;-79
2023/07/04 04:25:19;;;;;;;4.55;2.25;;;19.90;86.60;;;;;;5044627;28;20027;-78
2023/07/04 04:27:46;;;;;;;3.95;2.15;;;19.90;86.70;;;;;;5063779;28;20029;-79
2023/07/04 04:30:12;;;;;;;3.75;1.65;;;19.90;86.90;;;;;;5064925;28;20098;-78
2023/07/04 04:32:39;;;;;;;6.03;2.58;;;19.90;86.90;;;;;;5063337;28;20052;-78
2023/07/04 04:35:05;;;;;;;3.90;2.15;;;19.90;86.90;;;;;;5062475;28;20021;-79
2023/07/04 04:37:31;;;;;;;7.68;2.47;;;19.90;87.00;;;;;;5060781;28;20024;-79
2023/07/04 04:39:57;;;;;;;5.50;2.15;;;19.90;87.00;;;;;;5064616;28;20028;-79
2023/07/04 04:42:23;;;;;;;3.47;2.22;;;19.90;87.00;;;;;;5060045;28;20036;-78
2023/07/04 04:44:53;;;;;;;7.70;2.58;;;19.90;87.00;;;;;;5061140;28;20060;-78
2023/07/04 04:47:22;;;;;;;7.50;2.17;;;19.90;87.00;;;;;;5062791;28;20029;-78
2023/07/04 04:49:48;;;;;;;3.55;2.13;;;19.90;87.10;;;;;;5065546;28;20056;-79
2023/07/04 04:52:14;;;;;;;5.60;2.30;;;19.90;87.20;;;;;;5062304;28;20021;-78
2023/07/04 04:54:39;;;;;;;4.95;2.15;;;19.90;87.10;;;;;;5063624;28;20044;-78
2023/07/04 04:57:06;;;;;;;3.25;1.80;;;19.90;87.20;;;;;;5060280;28;20119;-79
2023/07/04 04:59:31;;;;;;;5.80;2.15;;;19.90;87.20;;;;;;5060469;28;20427;-78
2023/07/04 05:01:57;;;;;;;3.35;2.35;;;19.90;87.30;;;;;;5062212;28;20108;-79
2023/07/04 05:04:23;;;;;;;3.90;2.35;;;19.90;87.20;;;;;;5063823;28;20099;-78
2023/07/04 05:06:49;;;;;;;4.22;2.50;;;19.90;87.40;;;;;;5062020;28;20028;-79
2023/07/04 05:09:15;;;;;;;4.72;2.75;;;19.90;87.40;;;;;;5062673;28;20036;-83
2023/07/04 05:11:40;;;;;;;3.78;2.30;;;19.90;87.40;;;;;;5060665;28;20498;-78
2023/07/04 05:14:08;;;;;;;11.63;3.35;;;19.80;89.10;;;;;;5061741;28;20078;-78
2023/07/04 05:16:33;;;;;;;2.92;2.10;;;19.80;88.70;;;;;;5057375;28;20028;-78
2023/07/04 05:18:59;;;;;;;2.55;2.30;;;19.90;88.60;;;;;;5062488;28;20036;-78
2023/07/04 05:21:25;;;;;;;4.32;2.30;;;19.90;88.40;;;;;;5047847;28;20030;-78
2023/07/04 05:23:52;;;;;;;4.10;2.20;;;19.90;88.30;;;;;;5044576;28;20025;-78
2023/07/04 05:26:27;;;;;;;4.32;2.47;;;19.90;88.30;;;;;;5047498;28;20040;-78
2023/07/04 05:28:55;;;;;;;3.70;2.25;;;19.90;88.20;;;;;;5041552;28;20091;-78
2023/07/04 05:31:24;;;;;;;4.13;2.38;;;19.90;88.20;;;;;;5037805;28;20021;-77
2023/07/04 05:33:51;;;;;;;5.28;2.40;;;19.90;88.20;;;;;;5035498;28;20032;-78
2023/07/04 05:36:23;;;;;;;2.88;1.98;;;19.90;88.10;;;;;;5042408;28;20131;-78
2023/07/04 05:38:51;;;;;;;3.28;2.22;;;19.90;88.30;;;;;;5042150;28;20021;-78
2023/07/04 05:41:19;;;;;;;3.33;2.13;;;19.90;88.30;;;;;;5044591;28;20085;-79
2023/07/04 05:43:45;;;;;;;3.60;2.28;;;19.90;88.20;;;;;;5042374;28;20050;-78
2023/07/04 05:46:12;;;;;;;4.15;2.30;;;19.90;88.10;;;;;;5037637;28;20037;-78
2023/07/04 05:48:38;;;;;;;4.88;2.80;;;19.90;88.30;;;;;;5029669;28;20025;-78
2023/07/04 05:51:06;;;;;;;3.92;2.28;;;19.90;88.30;;;;;;5038933;28;20059;-78
2023/07/04 05:53:34;;;;;;;3.30;1.92;;;19.90;88.40;;;;;;5018099;28;20069;-77
2023/07/04 05:56:11;;;;;;;3.42;2.17;;;19.90;88.40;;;;;;5041094;28;20017;-78
2023/07/04 05:58:39;;;;;;;4.65;2.25;;;19.90;88.40;;;;;;5040863;28;20091;-78
2023/07/04 06:01:11;;;;;;;4.55;2.28;;;19.90;88.60;;;;;;5036999;28;20487;-78
2023/07/04 06:03:38;;;;;;;4.60;1.90;;;19.90;88.60;;;;;;5037856;28;20481;-78
2023/07/04 06:06:05;;;;;;;4.32;2.50;;;19.90;88.70;;;;;;5034187;28;20037;-78
2023/07/04 06:08:32;;;;;;;6.13;2.50;;;19.90;88.80;;;;;;5034431;28;20034;-78
2023/07/04 06:11:04;;;;;;;4.50;2.08;;;19.90;88.60;;;;;;5037115;28;20374;-78
2023/07/04 06:13:30;;;;;;;2.67;2.08;;;19.90;88.70;;;;;;5039664;28;20029;-77
2023/07/04 06:16:09;;;;;;;7.07;2.53;;;20.10;88.90;;;;;;5041148;28;20120;-78
2023/07/04 06:18:34;;;;;;;4.95;2.35;;;19.90;88.90;;;;;;5035173;28;20503;-78
2023/07/04 06:21:15;;;;;;;4.07;2.38;;;19.90;88.90;;;;;;5034883;28;20502;-78
2023/07/04 06:23:42;;;;;;;4.70;2.00;;;19.90;89.10;;;;;;5040778;28;20021;-78
2023/07/04 06:26:08;;;;;;;5.50;2.33;;;19.90;89.00;;;;;;5044684;28;20022;-78
2023/07/04 06:28:36;;;;;;;4.63;2.20;;;19.90;89.00;;;;;;5051959;28;20013;-77
2023/07/04 06:31:20;;;;;;;4.20;2.08;;;19.90;89.20;;;;;;5042036;28;20358;-78
2023/07/04 06:33:45;;;;;;;7.20;2.45;;;19.90;89.10;;;;;;5041702;28;20443;-78
2023/07/04 06:36:13;;;;;;;7.03;2.90;;;19.90;88.90;;;;;;5019535;28;20025;-77
2023/07/04 06:38:39;;;;;;;3.70;2.03;;;19.90;89.10;;;;;;5046641;28;20416;-78
2023/07/04 06:41:13;;;;;;;9.15;2.40;;;19.90;89.20;;;;;;5040284;28;20029;-77
2023/07/04 06:43:44;;;;;;;6.07;2.35;;;19.90;89.20;;;;;;5046915;28;20025;-78
2023/07/04 06:46:17;;;;;;;3.35;1.90;;;19.90;89.10;;;;;;5022801;28;20123;-77
2023/07/04 06:48:45;;;;;;;6.28;2.42;;;19.90;89.20;;;;;;5044450;28;20014;-78
2023/07/04 06:51:12;;;;;;;5.65;2.45;;;20.00;89.20;;;;;;5040252;28;20095;-77
2023/07/04 06:53:38;;;;;;;3.35;2.17;;;20.00;89.10;;;;;;5044114;28;20044;-79
2023/07/04 06:56:06;;;;;;;6.07;2.47;;;20.00;89.00;;;;;;5044679;28;20068;-78
2023/07/04 06:58:31;;;;;;;5.88;2.70;;;20.00;89.00;;;;;;5048080;28;20033;-78
2023/07/04 07:00:57;;;;;;;8.00;3.30;;;20.00;88.90;;;;;;5047057;28;20167;-78
2023/07/04 07:03:23;;;;;;;6.28;2.30;;;20.00;89.10;;;;;;5028776;28;20119;-78
2023/07/04 07:05:49;;;;;;;8.07;2.38;;;20.10;89.00;;;;;;5043448;28;20495;-79
2023/07/04 07:08:16;;;;;;;4.45;2.05;;;20.10;89.10;;;;;;5043032;28;20072;-78
2023/07/04 07:10:53;;;;;;;7.95;2.50;;;20.10;89.00;;;;;;5042404;28;20025;-78
2023/07/04 07:13:19;;;;;;;5.18;1.80;;;20.10;89.00;;;;;;5045693;28;20462;-78
2023/07/04 07:15:45;;;;;;;6.22;2.50;;;20.10;89.00;;;;;;5044708;28;20032;-79
2023/07/04 07:18:10;;;;;;;4.88;2.10;;;20.10;89.00;;;;;;5046829;28;20052;-78
2023/07/04 07:20:36;;;;;;;5.78;2.30;;;20.10;88.90;;;;;;5041822;28;20060;-79
2023/07/04 07:23:01;;;;;;;3.17;2.05;;;20.10;88.60;;;;;;5041845;28;20039;-79
2023/07/04 07:25:27;;;;;;;7.70;2.17;;;20.10;88.60;;;;;;5046134;28;20017;-79
2023/07/04 07:27:52;;;;;;;5.72;2.15;;;20.10;88.60;;;;;;5044303;28;20048;-78
2023/07/04 07:30:18;;;;;;;8.25;2.75;;;20.20;88.50;;;;;;5044954;28;20025;-78
2023/07/04 07:32:43;;;;;;;5.78;2.42;;;20.20;88.50;;;;;;5041340;28;20040;-79
2023/07/04 07:35:09;;;;;;;5.47;2.58;;;20.20;88.70;;;;;;5026058;28;20507;-78
2023/07/04 07:37:36;;;;;;;6.82;1.98;;;20.20;88.90;;;;;;5044024;28;20021;-79
2023/07/04 07:40:03;;;;;;;8.27;2.47;;;20.20;88.60;;;;;;5044830;28;20040;-78
2023/07/04 07:42:30;;;;;;;4.47;2.22;;;20.20;89.00;;;;;;5041022;28;20044;-78
2023/07/04 07:44:56;;;;;;;7.32;2.38;;;20.20;88.80;;;;;;5041087;28;20033;-79
2023/07/04 07:47:21;;;;;;;5.50;2.47;;;20.20;88.60;;;;;;5041834;28;20024;-79
2023/07/04 07:49:47;;;;;;;8.93;2.67;;;20.20;88.30;;;;;;5045458;28;20033;-79
2023/07/04 07:52:13;;;;;;;10.43;2.97;;;20.20;88.50;;;;;;5044278;28;20021;-79
2023/07/04 07:54:38;;;;;;;9.23;3.00;;;20.20;88.30;;;;;;5042655;28;20032;-79
2023/07/04 07:57:04;;;;;;;10.82;3.20;;;20.20;88.20;;;;;;5044171;28;20576;-80
2023/07/04 07:59:30;;;;;;;7.03;2.88;;;20.20;88.10;;;;;;5038367;28;20449;-78
2023/07/04 08:01:56;;;;;;;13.93;2.40;;;20.20;88.10;;;;;;5022164;28;20057;-80
2023/07/04 08:04:21;;;;;;;7.10;2.85;;;20.30;88.10;;;;;;5041796;28;20025;-80
2023/07/04 08:06:47;;;;;;;14.52;2.97;;;20.30;87.90;;;;;;5038797;28;20045;-79
2023/07/04 08:09:15;;;;;;;7.43;3.30;;;20.30;87.90;;;;;;5047023;28;20017;-79
2023/07/04 08:11:42;;;;;;;6.78;2.60;;;20.30;87.90;;;;;;5045550;28;20013;-80
2023/07/04 08:14:11;;;;;;;6.45;2.55;;;20.30;87.90;;;;;;5042029;28;20029;-80
2023/07/04 08:16:51;;;;;;;5.43;2.60;;;20.30;87.70;;;;;;5037144;28;20017;-80
2023/07/04 08:19:18;;;;;;;5.30;2.60;;;20.30;87.70;;;;;;5043655;28;20022;-79
2023/07/04 08:21:45;;;;;;;7.07;2.60;;;20.30;87.60;;;;;;5060054;28;20453;-80
2023/07/04 08:24:12;;;;;;;6.50;1.90;;;20.30;87.80;;;;;;5059919;28;20032;-81
2023/07/04 08:26:40;;;;;;;9.88;2.90;;;20.30;88.70;;;;;;5063260;28;20035;-81
2023/07/04 08:29:06;;;;;;;4.78;2.50;;;20.30;87.40;;;;;;5058052;28;20102;-80
2023/07/04 08:31:33;;;;;;;10.32;2.92;;;20.30;87.70;;;;;;5059305;28;20021;-79
2023/07/04 08:33:59;;;;;;;6.80;2.78;;;20.30;87.80;;;;;;5059658;28;20036;-80
2023/07/04 08:36:24;;;;;;;10.18;2.92;;;20.30;87.70;;;;;;5058640;28;20033;-79
2023/07/04 08:38:50;;;;;;;7.03;3.03;;;20.30;87.60;;;;;;5057314;28;20024;-79
2023/07/04 08:41:41;;;;;;;10.20;3.13;;;20.30;87.60;;;;;;5057455;28;20045;-79
2023/07/04 08:44:10;;;;;;;;;;;20.30;87.70;;;;;;5058509;28;20063;-79
2023/07/04 08:46:40;;;;;;;7.70;3.33;;;20.30;87.60;;;;;;5061715;28;19905;-79
2023/07/04 08:49:09;;;;;;;;;;;20.30;87.40;;;;;;5060757;28;20767;-79
2023/07/04 08:51:45;;;;;;;8.88;3.08;;;20.30;87.20;;;;;;5051539;28;20430;-79
2023/07/04 08:54:12;;;;;;;5.70;2.95;;;20.30;88.30;;;;;;5052987;28;20028;-78
2023/07/04 08:56:39;;;;;;;8.77;3.45;;;20.30;87.90;;;;;;5059031;28;20473;-79
2023/07/04 08:59:10;;;;;;;7.43;3.08;;;20.30;87.90;;;;;;5052630;28;20032;-78
2023/07/04 09:01:50;;;;;;;12.80;3.03;;;20.30;87.50;;;;;;5052368;28;20029;-78
2023/07/04 09:04:46;;;;;;;8.82;3.67;;;20.30;87.50;;;;;;5055159;28;20060;-78
2023/07/04 09:07:15;;;;;;;8.50;3.08;;;20.30;87.40;;;;;;5061243;28;20029;-79
2023/07/04 09:10:08;;;;;;;5.22;2.72;;;20.30;87.40;;;;;;5058897;28;20020;-79
2023/07/04 09:12:36;;;;;;;12.98;3.70;;;20.30;87.30;;;;;;5052687;28;20388;-79
2023/07/04 09:15:16;;;;;;;8.88;3.08;;;20.30;87.10;;;;;;5061975;28;20116;-79
2023/07/04 09:17:54;;;;;;;8.05;2.90;;;20.30;87.20;;;;;;5065056;28;20024;-79
2023/07/04 09:20:20;;;;;;;11.13;3.00;;;20.30;87.10;;;;;;5049313;28;20033;-78
2023/07/04 09:22:45;;;;;;;7.03;3.28;;;20.30;87.10;;;;;;5040072;28;20466;-79
2023/07/04 09:25:12;;;;;;;7.22;2.67;;;20.30;87.10;;;;;;5036904;28;20108;-81
2023/07/04 09:27:37;;;;;;;8.82;3.33;;;20.30;87.00;;;;;;5039437;28;20017;-79
2023/07/04 09:30:04;;;;;;;5.80;3.10;;;20.30;86.70;;;;;;5039965;28;20279;-79
2023/07/04 09:32:30;;;;;;;5.25;3.05;;;20.30;86.70;;;;;;5036511;28;20041;-79
2023/07/04 09:35:01;;;;;;;12.43;3.92;;;20.30;87.40;;;;;;5035281;28;20497;-77
2023/07/04 09:37:26;;;;;;;7.22;3.17;;;20.30;86.90;;;;;;5038851;28;20030;-79
2023/07/04 09:39:54;;;;;;;10.90;3.42;;;20.30;86.80;;;;;;5038905;28;20032;-79
2023/07/04 09:42:40;;;;;;;8.18;3.30;;;20.30;86.80;;;;;;5036760;28;20484;-79
2023/07/04 09:45:08;;;;;;;6.13;2.83;;;20.30;86.70;;;;;;5042470;28;20028;-80
2023/07/04 09:47:36;;;;;;;6.30;3.03;;;20.30;86.60;;;;;;5044865;28;20037;-81
2023/07/04 09:50:25;;;;;;;9.93;3.17;;;20.40;86.80;;;;;;5036295;28;20013;-79
2023/07/04 09:53:00;;;;;;;6.47;2.90;;;20.40;86.60;;;;;;5040444;28;20466;-80
2023/07/04 09:55:27;;;;;;;7.07;3.13;;;20.40;86.60;;;;;;5039370;28;20032;-79
2023/07/04 09:57:52;;;;;;;12.93;3.42;;;20.40;86.60;;;;;;5031552;28;20025;-80
2023/07/04 10:00:24;;;;;;;10.05;3.47;;;20.40;86.60;;;;;;5043554;28;20389;-80
2023/07/04 10:02:54;;;;;;;6.63;2.90;;;20.40;86.60;;;;;;5027614;28;20028;-79
2023/07/04 10:05:32;;;;;;;12.75;3.38;;;20.40;86.50;;;;;;5047095;28;20026;-79
2023/07/04 10:08:09;;;;;;;5.25;2.58;;;20.40;86.50;;;;;;5047908;28;20532;-79
2023/07/04 10:10:53;;;;;;;5.45;2.90;;;20.30;86.50;;;;;;5046581;28;20109;-79
2023/07/04 10:13:22;;;;;;;7.30;3.08;;;20.40;87.20;;;;;;5044958;28;20084;-79
2023/07/04 10:15:52;;;;;;;10.60;3.80;;;20.40;86.50;;;;;;5030334;28;20025;-79
2023/07/04 10:18:28;;;;;;;6.95;2.85;;;20.40;86.40;;;;;;5043996;28;20061;-79
2023/07/04 10:20:55;;;;;;;5.00;2.83;;;20.30;86.40;;;;;;5044163;28;20033;-79
2023/07/04 10:23:22;;;;;;;8.27;3.28;;;20.40;86.30;;;;;;5025460;28;20091;-79
2023/07/04 10:25:52;;;;;;;7.72;2.78;;;20.40;86.40;;;;;;5043821;28;20028;-78
2023/07/04 10:28:20;;;;;;;;;;;20.30;86.30;;;;;;5044433;28;20044;-78
2023/07/04 10:30:51;;;;;;;7.38;3.08;;;20.30;86.20;;;;;;5043251;28;19908;-79
2023/07/04 10:33:33;;;;;;;8.68;3.38;;;20.40;86.30;;;;;;5046659;28;20022;-79
2023/07/04 10:35:58;;;;;;;5.55;2.92;;;20.30;86.20;;;;;;5042542;28;20021;-79
2023/07/04 10:38:46;;;;;;;7.60;2.50;;;20.40;86.30;;;;;;5025804;28;20371;-79
2023/07/04 10:41:39;;;;;;;6.38;2.55;;;20.30;86.10;;;;;;5043660;28;20021;-80
2023/07/04 10:44:11;;;;;;;6.28;2.50;;;20.30;86.10;;;;;;5044385;28;20095;-80
2023/07/04 10:46:47;;;;;;;6.32;2.63;;;20.40;86.10;;;;;;5041694;28;20025;-79
2023/07/04 10:49:19;;;;;;;4.88;2.72;;;20.40;86.10;;;;;;5028280;28;20063;-79
2023/07/04 10:51:48;;;;;;;4.95;2.42;;;20.40;86.10;;;;;;5040277;28;20041;-79
2023/07/04 10:54:14;;;;;;;7.60;2.70;;;20.40;85.90;;;;;;5042817;28;20041;-79
2023/07/04 10:56:45;;;;;;;4.72;2.33;;;20.40;85.90;;;;;;5046190;28;20040;-81
2023/07/04 10:59:34;;;;;;;4.88;2.80;;;20.40;85.80;;;;;;5045844;28;20036;-80
2023/07/04 11:02:24;;;;;;;7.85;2.97;;;20.50;85.80;;;;;;5021211;28;20060;-79
2023/07/04 11:04:53;;;;;;;6.97;3.17;;;20.50;85.70;;;;;;5040157;28;20028;-79
2023/07/04 11:07:23;;;;;;;4.15;2.60;;;20.50;85.70;;;;;;5039268;28;20501;-79
2023/07/04 11:09:54;;;;;;;7.75;2.72;;;20.50;85.70;;;;;;5040800;28;20021;-80
2023/07/04 11:12:25;;;;;;;6.60;2.67;;;20.50;85.60;;;;;;5044463;28;20785;-80
2023/07/04 11:14:56;;;;;;;4.95;3.20;;;20.50;85.70;;;;;;5047547;28;20072;-79
2023/07/04 11:17:23;;;;;;;9.98;2.78;;;20.40;85.60;;;;;;5043150;28;20029;-79
2023/07/04 11:19:55;;;;;;;6.13;2.65;;;20.50;85.60;;;;;;5042019;28;20064;-79
2023/07/04 11:22:36;;;;;;;9.00;2.83;;;20.50;85.60;;;;;;5036290;28;20030;-79
2023/07/04 11:25:30;;;;;;;6.60;2.72;;;20.40;85.50;;;;;;5035843;28;20039;-79
2023/07/04 11:28:21;;;;;;;5.75;2.38;;;20.50;85.50;;;;;;5025608;28;20773;-79
2023/07/04 11:30:49;;;;;;;5.43;2.40;;;20.50;85.50;;;;;;5044087;28;20032;-78
2023/07/04 11:33:34;;;;;;;4.72;2.45;;;20.50;85.40;;;;;;5035117;28;20045;-79
2023/07/04 11:36:05;;;;;;;9.40;3.33;;;20.50;85.40;;;;;;5035076;28;20151;-79
2023/07/04 11:38:31;;;;;;;9.57;3.30;;;20.50;85.30;;;;;;5034673;28;20466;-78
2023/07/04 11:41:00;;;;;;;6.57;2.90;;;20.50;85.30;;;;;;5041917;28;21332;-79
2023/07/04 11:43:28;;;;;;;5.40;2.67;;;20.50;85.30;;;;;;5035282;28;20482;-80
2023/07/04 11:45:56;;;;;;;6.00;2.53;;;20.50;85.20;;;;;;5043236;28;20027;-79
2023/07/04 11:48:26;;;;;;;6.50;2.65;;;20.50;85.20;;;;;;5035954;28;20112;-80
2023/07/04 11:50:53;;;;;;;;;;;20.50;85.10;;;;;;5036079;28;20040;-81
2023/07/04 11:53:46;;;;;;;2.55;1.58;;;20.50;85.80;;;;;;5038818;28;19912;-83
2023/07/04 11:56:26;;;;;;;7.63;2.67;;;20.60;85.10;;;;;;5037418;28;20065;-80
2023/07/04 11:59:16;;;;;;;5.90;2.15;;;20.60;85.00;;;;;;5013942;28;20029;-80
2023/07/04 12:01:51;;;;;;;5.40;2.60;;;20.60;84.90;;;;;;5025050;28;20096;-80
2023/07/04 12:04:37;;;;;;;5.63;3.08;;;20.60;84.80;;;;;;5041454;28;20025;-79
2023/07/04 12:07:08;;;;;;;9.52;2.45;;;20.60;84.80;;;;;;5020530;28;20028;-82
2023/07/04 12:10:05;;;;;;;6.93;2.40;;;20.60;84.80;;;;;;5019031;28;20025;-79
2023/07/04 12:12:34;;;;;;;6.32;2.70;;;20.60;84.80;;;;;;5035050;28;20486;-80
2023/07/04 12:15:13;;;;;;;3.42;2.20;;;20.60;84.70;;;;;;5034218;28;20025;-81
2023/07/04 12:17:41;;;;;;;3.92;2.40;;;20.60;84.70;;;;;;5043009;28;20025;-80
2023/07/04 12:20:16;;;;;;;7.65;2.53;;;20.60;84.70;;;;;;5035760;28;20034;-80
2023/07/04 12:22:48;;;;;;;6.05;2.53;;;20.60;84.70;;;;;;5038141;28;20026;-80
2023/07/04 12:25:38;;;;;;;6.10;2.45;;;20.60;84.70;;;;;;5037743;28;20029;-80
2023/07/04 12:28:04;;;;;;;6.03;2.45;;;20.50;84.60;;;;;;5016147;28;20017;-80
2023/07/04 12:30:31;;;;;;;3.08;2.10;;;20.60;84.80;;;;;;5034682;28;20530;-80
2023/07/04 12:32:56;;;;;;;6.32;2.75;;;20.60;84.70;;;;;;5045387;28;20040;-80
2023/07/04 12:35:52;;;;;;;6.30;2.63;;;20.60;84.80;;;;;;5040652;28;20033;-80
2023/07/04 12:38:19;;;;;;;4.45;2.40;;;20.50;84.60;;;;;;5011472;28;20041;-79
2023/07/04 12:40:45;;;;;;;5.00;2.58;;;20.60;84.70;;;;;;5034787;28;20029;-79
2023/07/04 12:43:14;;;;;;;9.93;2.60;;;20.50;84.70;;;;;;5035696;28;20021;-79
2023/07/04 12:45:39;;;;;;;5.28;2.30;;;20.50;84.70;;;;;;5036134;28;20393;-80
2023/07/04 12:48:07;;;;;;;3.28;2.22;;;20.50;84.70;;;;;;5044311;28;20083;-80
2023/07/04 12:50:34;;;;;;;3.15;2.05;;;20.50;84.60;;;;;;5041964;28;20517;-79
2023/07/04 12:53:01;;;;;;;3.13;1.88;;;20.50;84.70;;;;;;5036683;28;20117;-79
2023/07/04 12:55:31;;;;;;;7.38;2.50;;;20.50;84.60;;;;;;5036957;28;20079;-79
2023/07/04 12:57:57;;;;;;;;;;;20.50;84.70;;;;;;5038465;28;20437;-79
2023/07/04 13:00:37;;;;;;;4.90;2.17;;;20.50;84.60;;;;;;5035138;28;20008;-79